createdAt,value
2023-04-12T00:00:47.054Z,3.33
2023-04-12T00:05:55.850Z,4.50
2023-04-12T00:11:02.754Z,0.00
2023-04-12T00:16:08.500Z,25.33
2023-04-12T00:21:13.750Z,5.00
2023-04-12T00:26:19.740Z,10.00
2023-04-12T00:31:25.367Z,9.00
2023-04-12T00:36:30.421Z,8.00
2023-04-12T00:46:39.978Z,5.33
2023-04-12T00:51:45.635Z,2.00
2023-04-12T00:56:51.597Z,13.00
2023-04-12T01:01:58.953Z,4.00
2023-04-12T01:07:11.422Z,8.00
2023-04-12T01:12:48.153Z,7.50
2023-04-12T01:18:10.991Z,13.25
2023-04-12T01:23:33.720Z,14.50
2023-04-12T01:28:44.091Z,0.00
2023-04-12T01:33:51.498Z,17.00
2023-04-12T01:38:58.035Z,16.50
2023-04-12T01:44:03.131Z,6.67
2023-04-12T01:49:08.207Z,11.00
2023-04-12T01:54:19.419Z,15.00
2023-04-12T01:59:28.776Z,6.00
2023-04-12T02:04:36.301Z,6.00
2023-04-12T02:09:41.282Z,18.00
2023-04-12T02:14:46.206Z,8.00
2023-04-12T02:19:51.471Z,15.75
2023-04-12T02:24:56.905Z,15.00
2023-04-12T02:30:01.814Z,4.50
2023-04-12T02:35:11.119Z,15.75
2023-04-12T02:40:17.475Z,15.00
2023-04-12T02:45:23.687Z,15.50
2023-04-12T02:50:29.641Z,20.67
2023-04-12T02:55:46.574Z,26.00
2023-04-12T03:00:53.945Z,14.33
2023-04-12T03:06:05.264Z,25.67
2023-04-12T03:11:12.014Z,10.00
2023-04-12T03:21:38.797Z,10.00
2023-04-12T03:26:45.630Z,6.67
2023-04-12T03:31:59.157Z,8.00
2023-04-12T03:37:06.364Z,13.75
2023-04-12T03:42:32.271Z,20.67
2023-04-12T03:47:48.600Z,7.00
2023-04-12T03:52:56.124Z,18.50
2023-04-12T03:58:08.308Z,22.75
2023-04-12T04:03:20.300Z,16.00
2023-04-12T04:08:35.764Z,28.75
2023-04-12T04:13:42.068Z,8.00
2023-04-12T04:18:53.270Z,19.00
2023-04-12T04:24:04.195Z,8.00
2023-04-12T04:29:14.355Z,18.00
2023-04-12T04:34:20.321Z,10.50
2023-04-12T04:39:28.693Z,31.33
2023-04-12T04:44:37.403Z,15.00
2023-04-12T04:49:47.298Z,10.67
2023-04-12T04:55:04.611Z,27.25
2023-04-12T05:00:15.241Z,17.33
2023-04-12T05:05:27.319Z,26.50
2023-04-12T05:10:41.007Z,35.33
2023-04-12T05:15:46.519Z,33.67
2023-04-12T05:20:52.071Z,30.25
2023-04-12T05:25:57.771Z,31.00
2023-04-12T05:31:03.458Z,27.33
2023-04-12T05:36:14.887Z,24.00
2023-04-12T05:41:20.232Z,40.67
2023-04-12T05:46:26.856Z,33.25
2023-04-12T05:51:40.494Z,23.00
2023-04-12T05:56:56.582Z,38.75
2023-04-12T06:02:03.352Z,36.75
2023-04-12T06:07:13.419Z,36.00
2023-04-12T06:12:20.140Z,41.75
2023-04-12T06:17:26.085Z,40.67
2023-04-12T06:22:36.258Z,35.50
2023-04-12T06:27:44.549Z,33.50
2023-04-12T06:32:52.611Z,33.00
2023-04-12T06:38:00.496Z,38.00
2023-04-12T06:43:06.019Z,46.33
2023-04-12T06:48:11.745Z,49.00
2023-04-12T06:53:20.447Z,40.75
2023-04-12T06:58:26.554Z,47.75
2023-04-12T07:08:40.685Z,46.33
2023-04-12T07:13:46.617Z,23.33
2023-04-12T07:18:52.354Z,25.00
2023-04-12T07:23:58.744Z,35.50
2023-04-12T07:34:10.398Z,36.00
2023-04-12T07:39:16.200Z,48.67
2023-04-12T07:44:21.737Z,46.67
2023-04-12T07:49:28.545Z,48.67
2023-04-12T07:54:35.216Z,45.00
2023-04-12T07:59:40.872Z,35.33
2023-04-12T08:04:47.075Z,29.75
2023-04-12T08:09:52.352Z,38.33
2023-04-12T08:14:58.189Z,23.67
2023-04-12T08:20:05.340Z,41.00
2023-04-12T08:25:11.997Z,37.33
2023-04-12T08:30:17.727Z,21.00
2023-04-12T08:35:26.858Z,30.25
2023-04-12T08:40:32.253Z,30.25
2023-04-12T08:45:38.073Z,33.25
2023-04-12T08:50:46.035Z,39.33
2023-04-12T08:55:52.690Z,38.25
2023-04-12T09:00:58.616Z,29.33
2023-04-12T09:06:07.654Z,21.25
2023-04-12T09:11:27.715Z,31.00
2023-04-12T09:16:40.854Z,50.00
2023-04-12T09:21:58.517Z,31.75
2023-04-12T09:27:06.101Z,30.50
2023-04-12T09:32:12.189Z,40.00
2023-04-12T09:37:18.951Z,40.75
2023-04-12T09:42:32.270Z,49.00
2023-04-12T09:47:43.538Z,47.67
2023-04-12T09:52:49.575Z,42.67
2023-04-12T09:57:57.341Z,42.75
2023-04-12T10:03:03.620Z,43.33
2023-04-12T10:08:09.542Z,47.75
2023-04-12T10:13:15.895Z,38.25
2023-04-12T10:18:22.704Z,48.50
2023-04-12T10:23:28.559Z,50.00
2023-04-12T10:28:33.854Z,43.50
2023-04-12T10:33:40.535Z,47.00
2023-04-12T10:38:51.273Z,42.75
2023-04-12T10:44:27.028Z,38.75
2023-04-12T10:49:33.695Z,49.25
2023-04-12T10:54:39.788Z,46.00
2023-04-12T10:59:53.303Z,50.00
2023-04-12T11:05:12.912Z,49.00
2023-04-12T11:10:41.644Z,49.50
2023-04-12T11:16:00.851Z,45.67
2023-04-12T11:21:07.258Z,45.25
2023-04-12T11:26:13.194Z,50.00
2023-04-12T11:31:23.257Z,47.75
2023-04-12T11:36:29.314Z,45.50
2023-04-12T11:41:35.944Z,49.00
2023-04-12T11:46:42.275Z,48.50
2023-04-12T11:51:49.674Z,47.25
2023-04-12T11:56:59.351Z,47.75
2023-04-12T12:02:17.078Z,49.67
2023-04-12T12:07:27.921Z,42.00
2023-04-12T12:17:41.237Z,49.25
2023-04-12T12:22:49.225Z,50.00
2023-04-12T12:28:00.638Z,50.00
2023-04-12T12:33:06.586Z,48.50
2023-04-12T12:38:12.659Z,49.67
2023-04-12T12:43:22.399Z,49.33
2023-04-12T12:48:28.556Z,44.00
2023-04-12T12:53:34.191Z,43.00
2023-04-12T12:58:41.121Z,46.75
2023-04-12T13:03:47.191Z,49.00
2023-04-12T13:08:53.705Z,39.25
2023-04-12T13:13:59.434Z,49.67
2023-04-12T13:19:05.264Z,41.25
2023-04-12T13:24:11.315Z,47.67
2023-04-12T13:29:17.607Z,46.00
2023-04-12T13:34:24.773Z,45.25
2023-04-12T13:39:32.620Z,45.75
2023-04-12T13:44:39.192Z,49.00
2023-04-12T13:49:45.825Z,45.25
2023-04-12T13:54:52.802Z,45.00
2023-04-12T14:00:02.006Z,50.00
2023-04-12T14:05:10.972Z,48.00
2023-04-12T14:10:18.321Z,49.50
2023-04-12T14:15:28.098Z,43.67
2023-04-12T14:20:34.224Z,45.00
2023-04-12T14:25:48.920Z,49.67
2023-04-12T14:30:54.975Z,47.25
2023-04-12T14:36:06.199Z,48.00
2023-04-12T14:41:13.905Z,49.00
2023-04-12T14:46:20.288Z,49.75
2023-04-12T14:51:26.317Z,48.00
2023-04-12T14:56:35.753Z,46.75
2023-04-12T15:01:44.875Z,46.25
2023-04-12T15:06:52.378Z,49.75
2023-04-12T15:12:02.269Z,43.67
2023-04-12T15:17:07.830Z,45.00
2023-04-12T15:22:13.888Z,50.00
2023-04-12T15:27:19.370Z,49.67
2023-04-12T15:32:27.380Z,49.33
2023-04-12T15:37:37.866Z,45.67
2023-04-12T15:42:46.143Z,37.00
2023-04-12T15:47:51.386Z,49.33
2023-04-12T15:52:57.114Z,47.50
2023-04-12T15:58:03.058Z,50.00
2023-04-12T16:03:09.120Z,47.67
2023-04-12T16:08:14.712Z,42.67
2023-04-12T16:13:20.567Z,50.00
2023-04-12T16:18:25.589Z,49.00
2023-04-12T16:23:30.800Z,47.50
2023-04-12T16:28:38.557Z,46.25
2023-04-12T16:33:45.386Z,40.00
2023-04-12T16:38:50.818Z,50.00
2023-04-12T16:43:56.827Z,30.75
2023-04-12T16:49:05.128Z,50.00
2023-04-12T16:54:10.042Z,43.00
2023-04-12T16:59:15.328Z,50.00
2023-04-12T17:04:21.292Z,33.67
2023-04-12T17:09:26.557Z,50.00
2023-04-12T17:14:32.306Z,46.67
2023-04-12T17:19:37.288Z,47.33
2023-04-12T17:24:42.450Z,46.00
2023-04-12T17:29:47.568Z,44.33
2023-04-12T17:34:56.137Z,26.00
2023-04-12T17:40:01.303Z,38.33
2023-04-12T17:45:07.682Z,38.33
2023-04-12T17:50:14.684Z,47.75
2023-04-12T17:55:24.830Z,44.33
2023-04-12T18:00:30.310Z,39.33
2023-04-12T18:05:36.462Z,46.75
2023-04-12T18:10:41.721Z,44.33
2023-04-12T18:15:46.948Z,45.00
2023-04-12T18:20:52.959Z,45.00
2023-04-12T18:25:57.867Z,30.00
2023-04-12T18:31:04.559Z,47.75
2023-04-12T18:36:11.409Z,47.67
2023-04-12T18:41:16.971Z,46.75
2023-04-12T18:46:21.958Z,46.00
2023-04-12T18:51:27.588Z,42.25
2023-04-12T18:56:32.856Z,41.00
2023-04-12T19:01:38.051Z,49.33
2023-04-12T19:06:42.987Z,39.33
2023-04-12T19:11:48.474Z,50.00
2023-04-12T19:16:54.356Z,47.50
2023-04-12T19:21:59.494Z,49.75
2023-04-12T19:27:04.914Z,46.25
2023-04-12T19:32:13.292Z,46.50
2023-04-12T19:37:20.174Z,44.00
2023-04-12T19:42:25.061Z,34.00
2023-04-12T19:47:31.444Z,48.67
2023-04-12T19:52:36.845Z,46.00
2023-04-12T19:57:43.084Z,44.67
2023-04-12T20:02:52.760Z,46.67
2023-04-12T20:07:58.248Z,48.00
2023-04-12T20:13:03.676Z,46.00
2023-04-12T20:18:09.761Z,42.33
2023-04-12T20:23:15.551Z,36.00
2023-04-12T20:28:20.968Z,46.25
2023-04-12T20:33:25.954Z,45.00
2023-04-12T20:38:32.061Z,36.75
2023-04-12T20:43:44.938Z,44.00
2023-04-12T20:48:51.687Z,50.00
2023-04-12T20:53:59.983Z,44.25
2023-04-12T20:59:04.781Z,41.00
2023-04-12T21:04:10.449Z,34.75
2023-04-12T21:09:16.404Z,45.50
2023-04-12T21:14:22.025Z,22.00
2023-04-12T21:19:27.087Z,37.00
2023-04-12T21:24:32.243Z,47.25
2023-04-12T21:29:42.242Z,37.00
2023-04-12T21:34:48.088Z,39.00
2023-04-12T21:39:53.269Z,42.67
2023-04-12T21:50:02.755Z,48.25
2023-04-12T21:55:08.007Z,36.67
2023-04-12T22:00:13.684Z,46.67
2023-04-12T22:05:18.505Z,48.00
2023-04-12T22:10:23.640Z,48.00
2023-04-12T22:15:29.750Z,46.33
2023-04-12T22:20:38.127Z,42.67
2023-04-12T22:25:43.485Z,42.33
2023-04-12T22:30:50.806Z,25.50
2023-04-12T22:35:56.296Z,49.75
2023-04-12T22:41:04.389Z,49.75
2023-04-12T22:46:16.649Z,36.75
2023-04-12T22:51:21.707Z,42.50
2023-04-12T22:56:27.324Z,44.50
2023-04-12T23:01:32.363Z,37.00
2023-04-12T23:06:44.254Z,45.00
2023-04-12T23:11:49.611Z,23.67
2023-04-12T23:16:54.651Z,45.00
2023-04-12T23:21:59.500Z,39.00
2023-04-12T23:27:04.978Z,37.33
2023-04-12T23:32:10.479Z,41.67
2023-04-12T23:37:16.522Z,24.50
2023-04-12T23:42:23.556Z,42.75
2023-04-12T23:47:29.115Z,24.67
2023-04-12T23:52:34.674Z,42.25
2023-04-12T23:57:40.126Z,49.00
